Time;durP1;ratioP1;P1;durP2;ratioP2;P2;SDS_P1;SDS_P2;PMS_P1;PMS_P2;Temp;Humidity;BMP_temperature;BMP_pressure;BME280_temperature;BME280_humidity;BME280_pressure;Samples;Min_cycle;Max_cycle;Signal;HPM_P1;HPM_P2
2024/02/01 00:01:03;;;;;;;5.68;3.30;;;8.20;99.90;;;;;;5074057;28;20024;-74
2024/02/01 00:03:29;;;;;;;5.60;3.33;;;8.20;99.90;;;;;;5073967;28;20104;-74
2024/02/01 00:05:55;;;;;;;8.70;3.75;;;8.20;99.90;;;;;;5073368;28;20365;-75
2024/02/01 00:08:20;;;;;;;9.30;3.33;;;8.20;99.90;;;;;;5073718;28;20081;-75
2024/02/01 00:10:46;;;;;;;6.10;3.38;;;8.20;99.90;;;;;;5073955;28;20107;-74
2024/02/01 00:13:11;;;;;;;5.00;3.30;;;8.30;99.90;;;;;;5073276;28;20017;-75
2024/02/01 00:15:37;;;;;;;7.25;3.70;;;8.30;99.90;;;;;;5073489;28;20559;-73
2024/02/01 00:18:03;;;;;;;10.07;3.85;;;8.30;99.90;;;;;;5072992;28;20055;-74
2024/02/01 00:20:29;;;;;;;5.55;3.25;;;8.40;99.90;;;;;;5073324;28;20113;-74
2024/02/01 00:22:55;;;;;;;7.38;3.95;;;8.40;99.90;;;;;;5072834;28;20141;-72
2024/02/01 00:25:20;;;;;;;8.80;3.78;;;8.40;99.90;;;;;;5048470;28;20037;-74
2024/02/01 00:27:46;;;;;;;6.97;3.63;;;8.40;99.90;;;;;;5073394;28;20098;-74
2024/02/01 00:30:12;;;;;;;4.32;3.28;;;8.50;99.90;;;;;;5072122;28;20093;-74
2024/02/01 00:32:37;;;;;;;7.32;3.30;;;8.40;99.90;;;;;;5073965;28;20056;-72
2024/02/01 00:35:04;;;;;;;5.38;3.33;;;8.40;99.90;;;;;;5064421;28;20096;-71
2024/02/01 00:37:30;;;;;;;8.15;3.30;;;8.40;99.90;;;;;;5073025;28;20024;-71
2024/02/01 00:39:56;;;;;;;8.73;3.75;;;8.40;99.90;;;;;;5078295;28;20648;-72
2024/02/01 00:42:21;;;;;;;6.20;3.63;;;8.40;99.90;;;;;;5073595;28;20476;-73
2024/02/01 00:44:47;;;;;;;8.30;3.20;;;8.40;99.90;;;;;;5073427;28;20099;-73
2024/02/01 00:47:13;;;;;;;7.00;3.08;;;8.40;99.90;;;;;;5071995;28;20430;-73
2024/02/01 00:49:38;;;;;;;4.97;2.65;;;8.50;99.90;;;;;;5071213;28;20043;-73
2024/02/01 00:52:04;;;;;;;11.13;3.78;;;8.50;99.90;;;;;;5072582;28;20031;-74
2024/02/01 00:54:30;;;;;;;6.00;3.40;;;8.50;99.90;;;;;;5078366;28;20055;-73
2024/02/01 00:56:56;;;;;;;6.50;2.85;;;8.50;99.90;;;;;;5074486;28;20055;-72
2024/02/01 00:59:21;;;;;;;7.45;3.08;;;8.60;99.90;;;;;;5075740;28;20107;-73
2024/02/01 01:01:47;;;;;;;6.57;2.95;;;8.60;99.90;;;;;;5080187;28;20036;-73
2024/02/01 01:04:15;;;;;;;9.43;3.20;;;8.60;99.90;;;;;;5054114;28;20031;-72
2024/02/01 01:06:42;;;;;;;6.72;3.05;;;8.60;99.90;;;;;;5077241;28;20040;-72
2024/02/01 01:09:08;;;;;;;8.10;3.08;;;8.60;99.90;;;;;;5071743;28;20060;-73
2024/02/01 01:11:33;;;;;;;10.10;3.60;;;8.60;99.90;;;;;;5072856;28;20086;-73
2024/02/01 01:13:59;;;;;;;7.82;3.65;;;8.60;99.90;;;;;;5071802;28;20029;-72
2024/02/01 01:16:27;;;;;;;9.27;3.47;;;8.70;99.90;;;;;;5073002;28;20366;-73
2024/02/01 01:18:54;;;;;;;9.88;3.95;;;8.70;99.90;;;;;;5072112;28;20021;-70
2024/02/01 01:21:19;;;;;;;14.40;5.03;;;8.80;99.90;;;;;;5071499;28;20047;-73
2024/02/01 01:23:45;;;;;;;7.38;5.30;;;8.80;99.90;;;;;;5070928;28;20450;-72
2024/02/01 01:26:10;;;;;;;7.25;4.68;;;8.90;99.90;;;;;;5071051;28;20080;-74
2024/02/01 01:28:36;;;;;;;8.40;4.55;;;8.80;99.90;;;;;;5071862;28;20461;-74
2024/02/01 01:31:02;;;;;;;8.77;5.15;;;8.70;99.90;;;;;;5071061;28;20024;-75
2024/02/01 01:33:28;;;;;;;9.00;5.47;;;8.60;99.90;;;;;;5067902;28;20032;-73
2024/02/01 01:35:54;;;;;;;10.70;5.50;;;8.60;99.90;;;;;;5065945;28;20027;-70
2024/02/01 01:38:19;;;;;;;8.65;5.57;;;8.50;99.90;;;;;;5072634;28;20099;-75
2024/02/01 01:40:45;;;;;;;11.90;6.18;;;8.50;99.90;;;;;;5093208;28;20021;-75
2024/02/01 01:43:10;;;;;;;13.75;6.80;;;8.40;99.90;;;;;;5091012;28;20111;-72
2024/02/01 01:45:36;;;;;;;12.20;6.70;;;8.30;99.90;;;;;;5092959;28;20477;-74
2024/02/01 01:48:02;;;;;;;13.57;6.70;;;8.30;99.90;;;;;;5085328;28;20023;-73
2024/02/01 01:50:28;;;;;;;11.90;6.90;;;8.30;99.90;;;;;;5068833;28;20094;-73
2024/02/01 01:52:57;;;;;;;14.35;6.30;;;8.30;99.90;;;;;;5073326;28;20053;-70
2024/02/01 01:55:24;;;;;;;13.53;6.33;;;8.30;99.90;;;;;;5072718;28;20028;-72
2024/02/01 01:57:50;;;;;;;10.23;5.78;;;8.30;99.90;;;;;;5060460;28;20078;-74
2024/02/01 02:00:17;;;;;;;11.02;6.07;;;8.20;99.90;;;;;;5071356;28;20034;-74
2024/02/01 02:02:43;;;;;;;12.50;6.18;;;8.20;99.90;;;;;;5072855;28;20039;-74
2024/02/01 02:05:10;;;;;;;11.93;7.00;;;8.20;99.90;;;;;;5071112;28;20105;-74
2024/02/01 02:07:38;;;;;;;13.40;7.40;;;8.40;99.90;;;;;;5072190;28;20032;-74
2024/02/01 02:10:05;;;;;;;13.38;7.90;;;8.40;99.90;;;;;;5071042;28;20063;-72
2024/02/01 02:12:30;;;;;;;13.88;7.82;;;8.50;99.90;;;;;;5071880;28;20020;-73
2024/02/01 02:15:00;;;;;;;14.30;7.95;;;8.50;99.90;;;;;;5061758;28;20386;-72
2024/02/01 02:17:26;;;;;;;14.65;8.18;;;8.50;99.90;;;;;;5070983;28;20056;-73
2024/02/01 02:19:53;;;;;;;15.45;7.90;;;8.50;99.90;;;;;;5074219;28;20040;-74
2024/02/01 02:22:20;;;;;;;12.77;8.05;;;8.50;99.90;;;;;;5078678;28;20503;-73
2024/02/01 02:24:46;;;;;;;17.23;8.02;;;8.50;99.90;;;;;;5081257;28;20024;-73
2024/02/01 02:27:12;;;;;;;13.63;7.60;;;8.40;99.90;;;;;;5075969;28;20055;-73
2024/02/01 02:29:38;;;;;;;11.38;7.07;;;8.40;99.90;;;;;;5079872;28;20129;-73
2024/02/01 02:32:04;;;;;;;12.57;7.75;;;8.30;99.90;;;;;;5074057;28;20116;-73
2024/02/01 02:34:30;;;;;;;15.07;8.23;;;8.20;99.90;;;;;;5081035;28;20032;-74
2024/02/01 02:36:55;;;;;;;16.30;7.78;;;8.10;99.90;;;;;;5080396;28;20024;-71
2024/02/01 02:39:21;;;;;;;14.60;6.80;;;8.10;99.90;;;;;;5071157;28;20094;-73
2024/02/01 02:41:46;;;;;;;12.35;6.53;;;8.10;99.90;;;;;;5082839;28;20184;-73
2024/02/01 02:44:13;;;;;;;11.25;6.65;;;8.10;99.90;;;;;;5079615;28;20035;-73
2024/02/01 02:46:39;;;;;;;9.57;6.35;;;8.00;99.90;;;;;;5079877;28;20048;-73
2024/02/01 02:49:08;;;;;;;12.32;6.15;;;8.00;99.90;;;;;;5070090;28;20497;-73
2024/02/01 02:51:34;;;;;;;8.52;6.60;;;8.00;99.90;;;;;;5075120;28;20029;-73
2024/02/01 02:54:00;;;;;;;12.10;6.28;;;8.00;99.90;;;;;;5070171;28;20025;-73
2024/02/01 02:56:25;;;;;;;8.93;5.55;;;8.20;99.90;;;;;;5071788;28;20059;-73
2024/02/01 02:58:51;;;;;;;12.90;5.93;;;8.40;99.90;;;;;;5070552;28;20082;-72
2024/02/01 03:01:17;;;;;;;11.60;5.45;;;8.60;99.90;;;;;;5070487;28;20768;-73
2024/02/01 03:03:42;;;;;;;10.27;5.32;;;8.60;99.90;;;;;;5041931;28;20021;-73
2024/02/01 03:06:12;;;;;;;8.30;5.35;;;8.60;99.90;;;;;;5059832;28;20032;-72
2024/02/01 03:08:43;;;;;;;8.65;5.18;;;8.70;99.90;;;;;;5069521;28;20150;-73
2024/02/01 03:11:13;;;;;;;11.13;5.30;;;8.60;99.90;;;;;;5070949;28;20085;-73
2024/02/01 03:13:45;;;;;;;8.50;5.07;;;8.60;99.90;;;;;;5070573;28;20029;-73
2024/02/01 03:16:18;;;;;;;10.18;4.20;;;8.60;99.90;;;;;;5070879;28;20032;-73
2024/02/01 03:18:45;;;;;;;8.85;5.05;;;8.60;99.90;;;;;;5078317;28;20346;-73
2024/02/01 03:21:11;;;;;;;9.52;4.50;;;8.60;99.90;;;;;;5072225;28;20036;-73
2024/02/01 03:23:39;;;;;;;11.80;4.53;;;8.70;99.90;;;;;;5078250;28;20020;-73
2024/02/01 03:26:04;;;;;;;7.60;4.20;;;8.70;99.90;;;;;;5078194;28;20020;-72
2024/02/01 03:28:30;;;;;;;8.02;4.57;;;8.70;99.90;;;;;;5081016;28;20392;-73
2024/02/01 03:30:56;;;;;;;8.43;4.10;;;8.70;99.90;;;;;;5079990;28;20055;-71
2024/02/01 03:33:22;;;;;;;6.30;4.00;;;8.70;99.90;;;;;;5077078;28;20031;-73
2024/02/01 03:35:49;;;;;;;9.77;4.03;;;8.60;99.90;;;;;;5080562;28;20033;-74
2024/02/01 03:38:15;;;;;;;5.57;3.50;;;8.60;99.90;;;;;;5070769;28;20059;-73
2024/02/01 03:40:43;;;;;;;5.85;3.72;;;8.60;99.90;;;;;;5080710;28;20036;-73
2024/02/01 03:43:12;;;;;;;7.07;3.42;;;8.70;99.90;;;;;;5082109;28;20461;-73
2024/02/01 03:45:48;;;;;;;10.18;3.72;;;8.80;99.90;;;;;;5079530;28;20016;-73
2024/02/01 03:48:17;;;;;;;8.27;3.72;;;8.80;99.90;;;;;;5076671;28;20782;-72
2024/02/01 03:50:42;;;;;;;5.68;3.13;;;8.80;99.90;;;;;;5078256;28;20033;-72
2024/02/01 03:53:10;;;;;;;4.40;2.83;;;8.80;99.90;;;;;;5074642;28;20031;-72
2024/02/01 03:55:37;;;;;;;7.93;3.83;;;8.80;99.90;;;;;;5063590;28;20028;-72
2024/02/01 03:58:03;;;;;;;6.43;3.08;;;8.80;99.90;;;;;;5067673;28;20037;-72
2024/02/01 04:00:30;;;;;;;5.35;3.35;;;8.80;99.90;;;;;;5052883;28;20028;-72
2024/02/01 04:03:03;;;;;;;5.30;3.13;;;8.80;99.90;;;;;;5070535;28;20029;-71
2024/02/01 04:05:36;;;;;;;5.43;3.15;;;8.80;99.90;;;;;;5071019;28;20078;-73
2024/02/01 04:08:06;;;;;;;5.55;2.85;;;8.80;99.90;;;;;;5069498;28;20469;-72
2024/02/01 04:10:36;;;;;;;5.35;2.97;;;8.70;99.90;;;;;;5070950;28;20040;-72
2024/02/01 04:13:05;;;;;;;7.95;3.60;;;8.70;99.90;;;;;;5073097;28;20485;-72
2024/02/01 04:15:31;;;;;;;7.15;3.55;;;8.60;99.90;;;;;;5071279;28;20482;-73
2024/02/01 04:17:57;;;;;;;8.10;4.05;;;8.70;99.90;;;;;;5074743;28;20025;-70
2024/02/01 04:20:22;;;;;;;5.57;3.38;;;8.70;99.90;;;;;;5074071;28;20044;-73
2024/02/01 04:22:53;;;;;;;4.63;3.17;;;8.70;99.90;;;;;;5058455;28;20043;-73
2024/02/01 04:25:23;;;;;;;6.22;3.50;;;8.70;99.90;;;;;;5056409;28;20025;-72
2024/02/01 04:27:50;;;;;;;5.38;2.80;;;8.70;99.90;;;;;;5073836;28;20041;-72
2024/02/01 04:30:19;;;;;;;4.35;2.97;;;8.70;99.90;;;;;;5067691;28;20032;-71
2024/02/01 04:32:46;;;;;;;6.28;3.15;;;8.70;99.90;;;;;;5064975;28;20078;-73
2024/02/01 04:35:13;;;;;;;4.82;2.97;;;8.70;99.90;;;;;;5072628;28;20376;-72
2024/02/01 04:37:39;;;;;;;4.43;3.08;;;8.60;99.90;;;;;;5074091;28;20033;-73
2024/02/01 04:40:10;;;;;;;5.68;2.80;;;8.60;99.90;;;;;;5078450;28;20077;-72
2024/02/01 04:42:37;;;;;;;5.18;3.10;;;8.60;99.90;;;;;;5074255;28;20029;-73
2024/02/01 04:45:08;;;;;;;6.20;3.10;;;8.60;99.90;;;;;;5072525;28;20028;-72
2024/02/01 04:47:37;;;;;;;5.93;3.55;;;8.60;99.90;;;;;;5063260;28;20029;-72
2024/02/01 04:50:04;;;;;;;4.28;3.33;;;8.60;99.90;;;;;;5067383;28;20040;-71
2024/02/01 04:52:30;;;;;;;5.50;3.50;;;8.60;99.90;;;;;;5066607;28;20492;-72
2024/02/01 04:54:58;;;;;;;7.45;3.47;;;8.60;99.90;;;;;;5072963;28;20029;-70
2024/02/01 04:57:24;;;;;;;3.72;2.83;;;8.60;99.90;;;;;;5073942;28;20024;-73
2024/02/01 04:59:50;;;;;;;5.45;3.55;;;8.50;99.90;;;;;;5073431;28;20044;-73
2024/02/01 05:02:16;;;;;;;6.38;3.60;;;8.60;99.90;;;;;;5073187;28;20051;-74
2024/02/01 05:04:42;;;;;;;5.50;2.85;;;8.60;99.90;;;;;;5068125;28;20186;-73
2024/02/01 05:07:08;;;;;;;5.20;3.15;;;8.60;99.90;;;;;;5069320;28;20033;-72
2024/02/01 05:09:35;;;;;;;4.10;2.22;;;8.60;99.90;;;;;;5073081;28;20035;-73
2024/02/01 05:12:01;;;;;;;7.43;2.50;;;8.60;99.90;;;;;;5072900;28;20020;-72
2024/02/01 05:14:27;;;;;;;4.30;2.58;;;8.70;99.90;;;;;;5072824;28;20033;-72
2024/02/01 05:16:53;;;;;;;4.22;2.40;;;8.80;99.90;;;;;;5073460;28;20031;-72
2024/02/01 05:19:19;;;;;;;4.18;2.33;;;8.80;99.90;;;;;;5072065;28;20024;-73
2024/02/01 05:21:45;;;;;;;8.80;2.60;;;8.80;99.90;;;;;;5062661;28;20029;-72
2024/02/01 05:24:13;;;;;;;3.85;1.98;;;8.80;99.90;;;;;;5064885;28;20074;-73
2024/02/01 05:26:51;;;;;;;3.25;2.10;;;8.80;99.90;;;;;;5066596;28;20607;-72
2024/02/01 05:29:25;;;;;;;4.32;2.40;;;8.70;99.90;;;;;;5071928;28;20032;-72
2024/02/01 05:31:53;;;;;;;5.25;2.25;;;8.60;99.90;;;;;;5072089;28;20028;-71
2024/02/01 05:34:19;;;;;;;2.42;1.67;;;8.60;99.90;;;;;;5071339;28;20032;-72
2024/02/01 05:36:46;;;;;;;3.30;1.98;;;8.70;99.90;;;;;;5072739;28;20025;-73
2024/02/01 05:39:24;;;;;;;2.08;1.60;;;8.60;99.90;;;;;;5066097;28;20031;-72
2024/02/01 05:41:58;;;;;;;4.07;1.70;;;8.70;99.90;;;;;;5071859;28;20417;-73
2024/02/01 05:44:26;;;;;;;4.85;2.05;;;8.80;99.90;;;;;;5071409;28;20028;-71
2024/02/01 05:46:54;;;;;;;4.78;2.28;;;8.80;99.90;;;;;;5072318;28;20028;-74
2024/02/01 05:49:28;;;;;;;4.50;2.25;;;8.90;99.90;;;;;;5071626;28;20040;-72
2024/02/01 05:51:59;;;;;;;4.85;2.03;;;8.80;99.90;;;;;;5072430;28;20116;-70
2024/02/01 05:54:24;;;;;;;;;;;8.90;99.90;;;;;;5072431;28;20033;-72
2024/02/01 05:56:50;;;;;;;3.42;2.05;;;9.00;99.90;;;;;;5061183;28;19909;-72
2024/02/01 05:59:20;;;;;;;4.38;2.00;;;8.90;99.90;;;;;;5066928;28;20573;-72
2024/02/01 06:01:46;;;;;;;4.13;2.00;;;9.00;99.90;;;;;;5072408;28;20028;-73
2024/02/01 06:04:13;;;;;;;4.05;2.25;;;8.90;99.90;;;;;;5070838;28;20082;-72
2024/02/01 06:06:43;;;;;;;4.07;2.17;;;8.90;99.90;;;;;;5072676;28;20058;-72
2024/02/01 06:09:11;;;;;;;5.45;1.75;;;8.90;99.90;;;;;;5071106;28;20032;-72
2024/02/01 06:11:42;;;;;;;3.03;1.92;;;8.80;99.90;;;;;;5068775;28;20554;-71
2024/02/01 06:14:08;;;;;;;4.50;2.97;;;8.70;99.90;;;;;;5070388;28;20025;-73
2024/02/01 06:16:34;;;;;;;3.60;2.33;;;8.50;99.90;;;;;;5071859;28;20377;-72
2024/02/01 06:19:00;;;;;;;3.75;2.40;;;8.30;99.90;;;;;;5070340;28;20082;-78
2024/02/01 06:21:26;;;;;;;3.08;2.25;;;8.10;99.90;;;;;;5071729;28;20054;-73
2024/02/01 06:23:52;;;;;;;4.25;2.55;;;8.00;99.90;;;;;;5058476;28;20036;-75
2024/02/01 06:26:26;;;;;;;6.35;3.45;;;7.90;99.90;;;;;;5071032;28;20040;-72
2024/02/01 06:28:56;;;;;;;4.30;2.72;;;7.70;99.90;;;;;;5068146;28;20479;-70
2024/02/01 06:31:24;;;;;;;6.72;3.28;;;7.60;99.90;;;;;;5066694;28;20032;-72
2024/02/01 06:33:50;;;;;;;5.82;3.03;;;7.50;99.90;;;;;;5069891;28;20024;-72
2024/02/01 06:36:19;;;;;;;4.95;3.00;;;7.50;99.90;;;;;;5068729;28;20416;-72
2024/02/01 06:42:01;;;;;;;8.38;2.95;;;7.40;99.90;;;;;;5038649;28;20087;-72
2024/02/01 06:44:26;;;;;;;7.32;3.28;;;7.30;99.90;;;;;;5060746;28;20115;-71
2024/02/01 06:49:59;;;;;;;;;;;7.20;99.90;;;;;;5065187;28;20044;-74
2024/02/01 06:52:24;;;;;;;6.20;3.45;;;7.20;99.90;;;;;;5059034;28;19908;-74
2024/02/01 06:55:06;;;;;;;6.80;3.40;;;7.10;99.90;;;;;;5070232;28;20036;-73
2024/02/01 07:04:15;;;;;;;9.52;3.92;;;7.00;99.90;;;;;;5074114;28;20086;-73
2024/02/01 07:06:17;;;;;;;12.20;3.97;;;7.00;99.90;;;;;;5040714;28;20041;-74
2024/02/01 07:11:25;;;;;;;9.88;4.63;;;7.00;99.90;;;;;;5071041;28;20032;-74
2024/02/01 07:16:38;;;;;;;10.80;5.22;;;7.00;99.90;;;;;;5076037;28;20229;-72
2024/02/01 07:19:12;;;;;;;11.52;5.20;;;7.00;99.90;;;;;;5070148;28;20029;-72
2024/02/01 07:24:45;;;;;;;9.00;3.60;;;7.00;99.90;;;;;;5070988;28;20035;-74
2024/02/01 07:57:36;;;;;;;3.42;2.63;;;7.10;99.90;;;;;;5063863;28;20073;-72
2024/02/01 08:00:02;;;;;;;6.40;2.65;;;7.10;99.90;;;;;;5073556;28;20428;-73
2024/02/01 08:02:48;;;;;;;5.95;2.92;;;7.20;99.90;;;;;;5074737;28;20025;-73
2024/02/01 08:07:58;;;;;;;5.10;2.80;;;7.20;99.90;;;;;;5068574;28;20436;-73
2024/02/01 08:10:24;;;;;;;3.83;2.50;;;7.20;99.90;;;;;;5062571;28;20111;-73
2024/02/01 08:12:50;;;;;;;10.52;3.17;;;7.10;99.90;;;;;;5074563;28;20029;-73
2024/02/01 08:15:19;;;;;;;3.97;2.70;;;7.10;99.90;;;;;;5054833;28;20024;-73
2024/02/01 08:17:50;;;;;;;4.40;2.40;;;7.10;99.90;;;;;;5074269;28;20365;-73
2024/02/01 08:20:19;;;;;;;6.80;2.42;;;7.10;99.90;;;;;;5073081;28;20089;-75
2024/02/01 08:22:46;;;;;;;7.22;2.40;;;7.20;99.90;;;;;;5073394;28;20060;-74
2024/02/01 08:25:12;;;;;;;4.13;2.55;;;7.10;99.90;;;;;;5070512;28;20028;-76
2024/02/01 08:27:49;;;;;;;6.13;2.80;;;7.10;99.90;;;;;;5073597;28;20048;-72
2024/02/01 08:30:16;;;;;;;4.78;2.75;;;7.10;99.90;;;;;;5070873;28;20050;-74
2024/02/01 08:32:42;;;;;;;7.22;3.08;;;7.10;99.90;;;;;;5074078;28;20039;-73
2024/02/01 08:35:10;;;;;;;5.28;2.72;;;7.00;99.90;;;;;;5066172;28;20029;-74
2024/02/01 08:37:39;;;;;;;4.15;2.30;;;7.10;99.90;;;;;;5075012;28;20032;-73
2024/02/01 08:40:22;;;;;;;4.10;2.83;;;7.20;99.90;;;;;;5065863;28;20082;-73
2024/02/01 08:42:57;;;;;;;6.63;2.33;;;7.20;99.90;;;;;;5068149;28;20078;-74
2024/02/01 08:45:28;;;;;;;4.40;2.15;;;7.20;99.90;;;;;;5064895;28;20043;-74
2024/02/01 08:48:02;;;;;;;3.80;2.22;;;7.30;99.90;;;;;;5066084;28;20535;-73
2024/02/01 08:50:29;;;;;;;7.68;3.08;;;7.20;99.90;;;;;;5073599;28;20508;-73
2024/02/01 08:52:55;;;;;;;6.20;2.38;;;7.20;99.90;;;;;;5072359;28;20033;-73
2024/02/01 08:55:21;;;;;;;4.32;2.10;;;7.20;99.90;;;;;;5073176;28;20033;-74
2024/02/01 08:57:47;;;;;;;3.08;2.00;;;7.20;99.90;;;;;;5072593;28;20048;-74
2024/02/01 09:00:32;;;;;;;5.93;2.38;;;7.30;99.90;;;;;;5066837;28;20429;-73
2024/02/01 09:03:05;;;;;;;3.63;2.35;;;7.30;99.90;;;;;;5066779;28;20024;-73
2024/02/01 09:05:36;;;;;;;6.95;2.50;;;7.30;99.90;;;;;;5067603;28;20492;-73
2024/02/01 09:08:06;;;;;;;5.30;2.25;;;7.30;99.90;;;;;;5053762;28;20705;-73
2024/02/01 09:10:33;;;;;;;2.83;1.83;;;7.40;99.90;;;;;;5068705;28;20039;-73
2024/02/01 09:12:59;;;;;;;3.33;1.92;;;7.40;99.90;;;;;;5070064;28;20412;-73
2024/02/01 09:15:25;;;;;;;6.60;1.95;;;7.30;99.90;;;;;;5073160;28;20457;-73
2024/02/01 09:17:51;;;;;;;3.05;2.25;;;7.40;99.90;;;;;;5072937;28;20044;-73
2024/02/01 09:20:17;;;;;;;2.97;2.30;;;7.30;99.90;;;;;;5071913;28;20404;-73
2024/02/01 09:22:44;;;;;;;3.53;2.25;;;7.30;99.90;;;;;;5063071;28;20029;-73
2024/02/01 09:25:10;;;;;;;3.72;2.15;;;7.30;99.90;;;;;;5067763;28;20035;-73
2024/02/01 09:27:38;;;;;;;4.47;2.20;;;7.40;99.90;;;;;;5072421;28;20114;-73
2024/02/01 09:30:06;;;;;;;3.15;2.08;;;7.40;99.90;;;;;;5070553;28;20452;-74
2024/02/01 09:32:32;;;;;;;3.47;2.20;;;7.50;99.90;;;;;;5070895;28;20025;-73
2024/02/01 09:34:58;;;;;;;4.57;1.80;;;7.60;99.90;;;;;;5066483;28;20051;-73
2024/02/01 09:37:23;;;;;;;3.83;1.90;;;7.60;99.90;;;;;;5072075;28;20025;-73
2024/02/01 09:39:50;;;;;;;3.08;1.90;;;7.70;99.90;;;;;;5064439;28;20039;-75
2024/02/01 09:42:18;;;;;;;4.60;2.13;;;7.80;99.90;;;;;;5071531;28;20024;-74
2024/02/01 09:44:44;;;;;;;3.92;1.80;;;7.80;99.90;;;;;;5071875;28;20028;-74
2024/02/01 09:47:12;;;;;;;2.38;1.30;;;7.90;99.90;;;;;;5065519;28;20055;-75
2024/02/01 09:49:41;;;;;;;3.13;1.63;;;7.90;99.90;;;;;;5061768;28;20033;-73
2024/02/01 09:52:09;;;;;;;4.20;1.70;;;8.00;99.90;;;;;;5041711;28;20028;-73
2024/02/01 09:54:36;;;;;;;1.80;1.58;;;8.00;99.90;;;;;;5071658;28;20373;-73
2024/02/01 09:57:14;;;;;;;2.80;1.73;;;8.10;99.90;;;;;;5071471;28;20027;-73
2024/02/01 09:59:40;;;;;;;2.85;1.83;;;8.20;99.90;;;;;;5071825;28;20040;-73
2024/02/01 10:02:12;;;;;;;2.33;1.98;;;8.20;99.90;;;;;;5069871;28;20024;-73
2024/02/01 10:04:40;;;;;;;3.15;1.92;;;8.20;99.90;;;;;;5073068;28;20025;-73
2024/02/01 10:07:06;;;;;;;3.60;1.90;;;8.20;99.90;;;;;;5070948;28;20074;-74
2024/02/01 10:09:32;;;;;;;2.88;1.52;;;8.30;99.90;;;;;;5070604;28;20417;-75
2024/02/01 10:11:58;;;;;;;3.20;2.08;;;8.30;99.90;;;;;;5070743;28;20420;-74
2024/02/01 10:14:34;;;;;;;2.00;1.80;;;8.40;99.90;;;;;;5071589;28;20024;-74
2024/02/01 10:17:05;;;;;;;3.90;1.75;;;8.40;99.90;;;;;;5071440;28;20449;-73
2024/02/01 10:19:32;;;;;;;4.88;2.10;;;8.50;99.90;;;;;;5071151;28;20508;-73
2024/02/01 10:22:10;;;;;;;5.05;2.03;;;8.50;99.90;;;;;;5073207;28;20036;-74
2024/02/01 10:24:45;;;;;;;7.13;2.10;;;8.60;99.90;;;;;;5051445;28;20032;-75
2024/02/01 10:27:21;;;;;;;4.18;1.98;;;8.60;99.90;;;;;;5070024;28;20040;-74
2024/02/01 10:29:47;;;;;;;4.57;1.95;;;8.70;99.90;;;;;;5070136;28;20393;-74
2024/02/01 10:32:14;;;;;;;4.30;2.15;;;8.60;99.90;;;;;;5071042;28;20029;-74
2024/02/01 10:34:50;;;;;;;4.13;2.00;;;8.60;99.90;;;;;;5047569;28;20105;-74
2024/02/01 10:37:19;;;;;;;3.90;1.95;;;8.60;99.90;;;;;;5071168;28;20021;-73
2024/02/01 10:40:02;;;;;;;2.67;1.80;;;8.60;99.90;;;;;;5063689;28;20431;-74
2024/02/01 10:42:30;;;;;;;4.53;1.85;;;8.60;99.90;;;;;;5062537;28;20522;-74
2024/02/01 10:45:01;;;;;;;3.17;2.33;;;8.70;99.90;;;;;;5066390;28;20107;-74
2024/02/01 10:47:31;;;;;;;3.00;1.83;;;8.70;99.90;;;;;;5071354;28;20041;-74
2024/02/01 10:49:57;;;;;;;2.25;1.88;;;8.80;99.90;;;;;;5066328;28;20474;-72
2024/02/01 10:52:23;;;;;;;3.88;1.50;;;8.90;99.90;;;;;;5071633;28;20032;-74
2024/02/01 10:54:49;;;;;;;5.15;2.20;;;8.90;99.90;;;;;;5070745;28;20028;-74
2024/02/01 10:57:17;;;;;;;1.48;1.00;;;8.90;99.90;;;;;;5071600;28;20096;-75
2024/02/01 10:59:49;;;;;;;4.07;1.38;;;9.00;99.90;;;;;;5086346;28;20043;-74
2024/02/01 11:02:15;;;;;;;1.70;1.20;;;9.00;99.90;;;;;;5086889;28;20026;-74
2024/02/01 11:04:48;;;;;;;1.17;0.80;;;9.00;99.90;;;;;;5082301;28;20057;-74
2024/02/01 11:07:23;;;;;;;2.05;1.17;;;9.00;99.90;;;;;;5085793;28;20259;-73
2024/02/01 11:09:50;;;;;;;1.83;1.05;;;9.00;99.90;;;;;;5077426;28;20040;-73
2024/02/01 11:12:24;;;;;;;1.00;0.70;;;9.00;99.90;;;;;;5071254;28;20091;-74
2024/02/01 11:14:51;;;;;;;0.95;0.90;;;9.00;99.90;;;;;;5071088;28;20875;-77
2024/02/01 11:17:25;;;;;;;1.30;0.93;;;9.00;99.90;;;;;;5063270;28;20032;-78
2024/02/01 11:19:55;;;;;;;0.95;0.85;;;9.10;99.90;;;;;;5070853;28;20136;-76
2024/02/01 11:22:21;;;;;;;1.20;0.50;;;9.30;99.90;;;;;;5067490;28;20043;-78
2024/02/01 11:24:46;;;;;;;1.70;0.60;;;9.50;99.90;;;;;;5063044;28;20033;-74
2024/02/01 11:27:18;;;;;;;1.27;0.70;;;9.80;99.90;;;;;;5068297;28;20048;-70
2024/02/01 11:29:46;;;;;;;0.68;0.60;;;10.00;99.90;;;;;;5070258;28;20066;-76
2024/02/01 11:32:22;;;;;;;0.73;0.50;;;10.20;99.90;;;;;;5070249;28;20031;-76
2024/02/01 11:34:55;;;;;;;0.70;0.40;;;10.30;99.90;;;;;;5070265;28;20056;-85
2024/02/01 11:37:23;;;;;;;0.60;0.60;;;10.40;99.90;;;;;;5069694;28;20031;-74
2024/02/01 11:39:50;;;;;;;0.50;0.50;;;10.40;99.90;;;;;;5062855;28;20062;-77
2024/02/01 11:42:16;;;;;;;1.95;0.50;;;10.40;99.90;;;;;;5058119;28;20052;-75
2024/02/01 11:44:42;;;;;;;0.63;0.60;;;10.30;99.90;;;;;;5046856;28;20025;-74
2024/02/01 11:47:11;;;;;;;0.45;0.45;;;10.40;99.90;;;;;;5075550;28;20576;-74
2024/02/01 11:49:37;;;;;;;0.40;0.40;;;10.50;99.90;;;;;;5070568;28;20064;-74
2024/02/01 11:52:43;;;;;;;0.85;0.52;;;10.60;99.90;;;;;;5070139;28;20059;-74
2024/02/01 11:55:09;;;;;;;0.50;0.43;;;10.60;99.90;;;;;;5062915;28;20020;-73
2024/02/01 11:57:47;;;;;;;0.73;0.60;;;10.60;99.90;;;;;;5039950;28;20025;-73
2024/02/01 12:00:16;;;;;;;0.63;0.50;;;10.70;99.90;;;;;;5047368;28;20358;-76
2024/02/01 12:02:45;;;;;;;0.68;0.40;;;10.80;99.90;;;;;;5068861;28;20039;-76
2024/02/01 12:05:12;;;;;;;0.95;0.65;;;10.90;99.90;;;;;;5062354;28;20041;-75
2024/02/01 12:07:41;;;;;;;0.45;0.45;;;10.90;99.90;;;;;;5070665;28;20032;-75
2024/02/01 12:10:11;;;;;;;1.00;0.40;;;10.80;99.90;;;;;;5066889;28;20037;-74
2024/02/01 12:12:39;;;;;;;0.60;0.60;;;10.90;99.90;;;;;;5070303;28;20479;-75
2024/02/01 12:15:05;;;;;;;0.77;0.55;;;10.90;99.90;;;;;;5069371;28;20382;-76
2024/02/01 12:17:36;;;;;;;0.60;0.60;;;10.80;99.90;;;;;;5070448;28;20562;-76
2024/02/01 12:20:03;;;;;;;0.50;0.50;;;10.90;99.90;;;;;;5065906;28;20526;-72
2024/02/01 12:22:32;;;;;;;0.75;0.70;;;10.80;99.90;;;;;;5065909;28;20081;-74
2024/02/01 12:24:58;;;;;;;0.70;0.70;;;10.80;99.90;;;;;;5059014;28;20036;-73
2024/02/01 12:27:24;;;;;;;0.60;0.60;;;10.70;99.90;;;;;;5062338;28;20048;-73
2024/02/01 12:29:50;;;;;;;1.52;0.43;;;10.60;99.90;;;;;;5063762;28;20474;-73
2024/02/01 12:32:15;;;;;;;1.08;0.68;;;10.50;99.90;;;;;;5067020;28;20033;-74
2024/02/01 12:34:42;;;;;;;1.88;0.80;;;10.50;99.90;;;;;;5067734;28;20032;-73
2024/02/01 12:37:08;;;;;;;1.55;0.70;;;10.30;99.90;;;;;;5072979;28;20025;-73
2024/02/01 12:39:37;;;;;;;0.55;0.47;;;10.30;99.90;;;;;;5066833;28;20116;-73
2024/02/01 12:42:04;;;;;;;1.25;0.65;;;10.30;99.90;;;;;;5067162;28;20028;-73
2024/02/01 12:44:37;;;;;;;1.30;0.57;;;10.10;99.90;;;;;;5072846;28;20429;-73
2024/02/01 12:47:04;;;;;;;0.80;0.70;;;10.10;99.90;;;;;;5061863;28;20108;-73
2024/02/01 12:49:29;;;;;;;1.42;0.88;;;10.00;99.90;;;;;;5072914;28;20493;-73
2024/02/01 12:52:04;;;;;;;1.50;0.70;;;10.10;99.90;;;;;;5070650;28;20024;-71
2024/02/01 12:54:30;;;;;;;0.85;0.85;;;10.00;99.90;;;;;;5065485;28;20059;-73
2024/02/01 12:56:56;;;;;;;2.05;0.95;;;9.90;99.90;;;;;;5072997;28;20505;-73
2024/02/01 12:59:23;;;;;;;1.08;1.00;;;9.80;99.90;;;;;;5072806;28;20519;-73
2024/02/01 13:01:48;;;;;;;1.00;1.00;;;9.70;99.90;;;;;;5071420;28;20028;-74
2024/02/01 13:04:14;;;;;;;2.65;1.10;;;9.60;99.90;;;;;;5067160;28;20522;-74
2024/02/01 13:06:40;;;;;;;1.42;1.08;;;9.70;99.90;;;;;;5071389;28;20036;-74
2024/02/01 13:09:08;;;;;;;1.30;1.20;;;9.60;99.90;;;;;;5071961;28;20060;-74
2024/02/01 13:11:34;;;;;;;1.70;1.35;;;9.60;99.90;;;;;;5072977;28;20032;-73
2024/02/01 13:14:00;;;;;;;1.40;1.30;;;9.50;99.90;;;;;;5072175;28;20031;-72
2024/02/01 13:16:27;;;;;;;1.45;1.30;;;9.50;99.90;;;;;;5072820;28;20024;-73
2024/02/01 13:18:56;;;;;;;1.70;1.60;;;9.40;99.90;;;;;;5072494;28;20020;-73
2024/02/01 13:21:22;;;;;;;1.58;1.20;;;9.40;99.90;;;;;;5072183;28;20029;-73
2024/02/01 13:23:48;;;;;;;1.55;1.45;;;9.50;99.90;;;;;;5045797;28;20036;-73
2024/02/01 13:26:14;;;;;;;1.42;1.33;;;9.50;99.90;;;;;;5070225;28;20404;-73
2024/02/01 13:28:40;;;;;;;1.45;1.35;;;9.50;99.90;;;;;;5062191;28;20048;-73
2024/02/01 13:31:06;;;;;;;2.13;1.42;;;9.40;99.90;;;;;;5072185;28;20115;-72
2024/02/01 13:33:35;;;;;;;3.03;1.80;;;9.40;99.90;;;;;;5076148;28;20032;-75
2024/02/01 13:36:02;;;;;;;2.95;1.90;;;9.40;99.90;;;;;;5077658;28;20063;-75
2024/02/01 13:38:28;;;;;;;1.75;1.65;;;9.50;99.90;;;;;;5081278;28;20060;-73
2024/02/01 13:40:54;;;;;;;3.10;2.20;;;9.50;99.90;;;;;;5082064;28;20535;-75
2024/02/01 13:43:20;;;;;;;2.50;2.30;;;9.40;99.90;;;;;;5079567;28;20669;-73
2024/02/01 13:45:46;;;;;;;3.80;2.33;;;9.40;99.90;;;;;;5079589;28;20461;-73
2024/02/01 13:48:12;;;;;;;2.53;2.05;;;9.40;99.90;;;;;;5081008;28;20474;-73
2024/02/01 13:50:38;;;;;;;2.83;2.10;;;9.40;99.90;;;;;;5082498;28;20139;-72
2024/02/01 13:53:03;;;;;;;3.15;2.55;;;9.30;99.90;;;;;;5079600;28;20024;-72